Time;durP1;ratioP1;P1;durP2;ratioP2;P2;SDS_P1;SDS_P2;PMS_P1;PMS_P2;Temp;Humidity;BMP_temperature;BMP_pressure;BME280_temperature;BME280_humidity;BME280_pressure;Samples;Min_cycle;Max_cycle;Signal;HPM_P1;HPM_P2
2023/09/04 00:02:17;;;;;;;8.38;4.60;;;15.00;99.90;;;;;;4977194;28;20033;-91
2023/09/04 00:04:43;;;;;;;5.75;4.47;;;15.00;99.90;;;;;;4977689;28;20026;-91
2023/09/04 00:07:09;;;;;;;6.00;4.38;;;14.90;99.90;;;;;;4977392;28;20097;-91
2023/09/04 00:09:34;;;;;;;9.93;4.38;;;14.80;99.90;;;;;;4977476;28;20478;-91
2023/09/04 00:12:00;;;;;;;6.68;4.18;;;14.80;99.90;;;;;;4978609;28;20015;-91
2023/09/04 00:14:26;;;;;;;7.40;4.20;;;14.80;99.90;;;;;;4973421;28;20033;-88
2023/09/04 00:16:51;;;;;;;5.10;4.05;;;14.80;99.90;;;;;;4977562;28;20486;-89
2023/09/04 00:19:17;;;;;;;7.75;4.35;;;14.80;99.90;;;;;;4985738;28;20149;-90
2023/09/04 00:21:43;;;;;;;5.35;4.07;;;14.80;99.90;;;;;;4987361;28;20478;-89
2023/09/04 00:24:08;;;;;;;7.20;4.25;;;14.70;99.90;;;;;;4984779;28;20485;-91
2023/09/04 00:26:35;;;;;;;4.35;3.55;;;14.70;99.90;;;;;;4982971;28;20478;-90
2023/09/04 00:29:01;;;;;;;5.30;4.30;;;14.70;99.90;;;;;;4982595;28;20035;-90
2023/09/04 00:31:26;;;;;;;8.27;4.32;;;14.70;99.90;;;;;;4981229;28;20035;-91
2023/09/04 00:33:52;;;;;;;6.65;4.45;;;14.70;99.90;;;;;;4979194;28;20031;-90
2023/09/04 00:36:17;;;;;;;11.70;4.60;;;14.60;99.90;;;;;;4994120;28;20027;-91
2023/09/04 00:38:43;;;;;;;4.78;3.95;;;14.60;99.90;;;;;;4977458;28;20019;-91
2023/09/04 00:41:09;;;;;;;6.47;4.47;;;14.50;99.90;;;;;;4977473;28;20485;-89
2023/09/04 00:43:38;;;;;;;6.88;4.18;;;14.50;99.90;;;;;;4977396;28;20019;-91
2023/09/04 00:46:05;;;;;;;7.05;4.75;;;14.30;99.90;;;;;;4976876;28;20030;-90
2023/09/04 00:48:33;;;;;;;8.13;4.25;;;14.20;99.90;;;;;;4976910;28;20027;-90
2023/09/04 00:51:00;;;;;;;5.80;4.30;;;14.10;99.90;;;;;;4978020;28;20055;-90
2023/09/04 00:53:27;;;;;;;7.65;4.43;;;14.00;99.90;;;;;;4974025;28;20387;-89
2023/09/04 00:55:53;;;;;;;6.40;3.72;;;13.90;99.90;;;;;;4977811;28;20037;-91
2023/09/04 00:58:19;;;;;;;7.63;4.25;;;13.90;99.90;;;;;;4976689;28;20043;-89
2023/09/04 01:00:45;;;;;;;8.55;4.63;;;13.80;99.90;;;;;;4982460;28;20035;-89
2023/09/04 01:03:12;;;;;;;4.43;3.65;;;13.80;99.90;;;;;;4977944;28;20030;-89
2023/09/04 01:05:38;;;;;;;8.18;4.75;;;13.80;99.90;;;;;;4990090;28;20027;-90
2023/09/04 01:08:06;;;;;;;5.75;4.28;;;13.70;99.90;;;;;;5003028;28;20102;-90
2023/09/04 01:10:45;;;;;;;6.22;4.22;;;13.70;99.90;;;;;;4994625;28;20031;-90
2023/09/04 01:13:24;;;;;;;5.50;4.05;;;13.70;99.90;;;;;;4994972;28;20058;-90
2023/09/04 01:15:51;;;;;;;6.28;4.57;;;13.70;99.90;;;;;;4987909;28;20066;-88
2023/09/04 01:18:17;;;;;;;6.68;4.40;;;13.70;99.90;;;;;;4998451;28;20034;-90
2023/09/04 01:20:43;;;;;;;5.63;4.05;;;13.80;99.90;;;;;;4993389;28;20047;-87
2023/09/04 01:23:09;;;;;;;6.53;4.05;;;13.80;99.90;;;;;;5000576;28;20027;-90
2023/09/04 01:25:54;;;;;;;6.63;4.05;;;13.90;99.90;;;;;;4979109;28;20440;-90
2023/09/04 01:28:40;;;;;;;5.05;4.00;;;14.00;99.90;;;;;;4976676;28;20022;-91
2023/09/04 01:31:05;;;;;;;5.63;4.30;;;14.00;99.90;;;;;;4976706;28;20041;-90
2023/09/04 01:33:36;;;;;;;5.15;3.97;;;14.00;99.90;;;;;;4974424;28;20046;-91
2023/09/04 01:36:05;;;;;;;6.72;4.20;;;13.90;99.90;;;;;;4982027;28;20066;-90
2023/09/04 01:38:32;;;;;;;9.13;4.93;;;13.80;99.90;;;;;;4984081;28;20033;-90
2023/09/04 01:40:58;;;;;;;7.03;4.07;;;13.80;99.90;;;;;;4980095;28;20054;-91
2023/09/04 01:43:24;;;;;;;8.20;4.85;;;13.70;99.90;;;;;;4974292;28;20053;-90
2023/09/04 01:45:50;;;;;;;8.00;5.07;;;13.60;99.90;;;;;;4974662;28;20031;-90
2023/09/04 01:48:15;;;;;;;6.22;5.05;;;13.50;99.90;;;;;;4974985;28;20023;-91
2023/09/04 01:50:41;;;;;;;5.22;4.00;;;13.50;99.90;;;;;;4974776;28;20038;-91
2023/09/04 01:53:06;;;;;;;6.32;4.30;;;13.40;99.90;;;;;;4974609;28;20037;-91
2023/09/04 01:55:32;;;;;;;5.93;4.20;;;13.40;99.90;;;;;;4974790;28;20398;-89
2023/09/04 01:57:58;;;;;;;5.95;4.40;;;13.30;99.90;;;;;;4974597;28;20388;-91
2023/09/04 02:00:23;;;;;;;5.35;4.25;;;13.30;99.90;;;;;;4974403;28;20029;-91
2023/09/04 02:02:49;;;;;;;5.53;4.70;;;13.20;99.90;;;;;;4974707;28;20018;-92
2023/09/04 02:05:15;;;;;;;5.25;4.28;;;13.20;99.90;;;;;;4974288;28;20019;-90
2023/09/04 02:07:41;;;;;;;5.50;4.05;;;13.20;99.90;;;;;;4974497;28;20049;-89
2023/09/04 02:10:07;;;;;;;6.63;4.07;;;13.20;99.90;;;;;;4970825;28;20038;-90
2023/09/04 02:12:32;;;;;;;8.93;4.13;;;13.20;99.90;;;;;;4990231;28;20027;-89
2023/09/04 02:14:58;;;;;;;7.65;4.60;;;13.20;99.90;;;;;;4974289;28;20504;-90
2023/09/04 02:17:23;;;;;;;7.45;4.78;;;13.10;99.90;;;;;;4977722;28;20577;-92
2023/09/04 02:19:49;;;;;;;8.18;4.93;;;13.10;99.90;;;;;;4974455;28;20025;-91
2023/09/04 02:22:15;;;;;;;6.85;5.10;;;13.00;99.90;;;;;;4975005;28;20018;-91
2023/09/04 02:24:43;;;;;;;9.30;5.07;;;13.00;99.90;;;;;;4974280;28;20490;-91
2023/09/04 02:27:08;;;;;;;6.70;5.05;;;13.00;99.90;;;;;;4988022;28;20478;-90
2023/09/04 02:29:34;;;;;;;6.50;4.57;;;13.00;99.90;;;;;;4990379;28;20042;-91
2023/09/04 02:32:00;;;;;;;7.10;5.22;;;13.00;99.90;;;;;;4973747;28;20047;-90
2023/09/04 02:34:26;;;;;;;6.57;4.85;;;12.90;99.90;;;;;;4974883;28;20027;-90
2023/09/04 02:36:51;;;;;;;7.78;4.60;;;13.00;99.90;;;;;;4974091;28;20019;-90
2023/09/04 02:39:17;;;;;;;6.40;4.93;;;13.00;99.90;;;;;;4973743;28;20022;-90
2023/09/04 02:41:43;;;;;;;5.68;4.10;;;13.00;99.90;;;;;;4973547;28;20061;-89
2023/09/04 02:44:08;;;;;;;5.78;4.72;;;12.90;99.90;;;;;;4973784;28;20375;-91
2023/09/04 02:46:34;;;;;;;6.78;4.38;;;12.90;99.90;;;;;;4973738;28;20485;-90
2023/09/04 02:49:00;;;;;;;8.63;5.18;;;12.80;99.90;;;;;;4973483;28;20066;-90
2023/09/04 02:51:25;;;;;;;9.65;4.63;;;12.80;99.90;;;;;;4973731;28;20019;-92
2023/09/04 02:53:51;;;;;;;6.20;4.53;;;12.80;99.90;;;;;;4973744;28;20018;-90
2023/09/04 02:56:16;;;;;;;6.97;4.88;;;12.80;99.90;;;;;;4973565;28;20078;-91
2023/09/04 02:58:42;;;;;;;8.45;4.95;;;12.80;99.90;;;;;;4973993;28;20022;-90
2023/09/04 03:01:08;;;;;;;6.97;5.03;;;12.70;99.90;;;;;;4974918;28;20027;-90
2023/09/04 03:03:33;;;;;;;6.80;4.40;;;12.70;99.90;;;;;;4973680;28;20027;-90
2023/09/04 03:06:09;;;;;;;6.18;4.15;;;12.70;99.90;;;;;;4973548;28;20038;-90
2023/09/04 03:08:35;;;;;;;8.15;5.30;;;12.60;99.90;;;;;;4972426;28;20057;-90
2023/09/04 03:11:00;;;;;;;6.20;4.38;;;12.60;99.90;;;;;;4973752;28;20545;-89
2023/09/04 03:13:26;;;;;;;8.63;4.82;;;12.60;99.90;;;;;;4973688;28;20482;-90
2023/09/04 03:15:52;;;;;;;7.15;5.15;;;12.60;99.90;;;;;;4973476;28;20054;-90
2023/09/04 03:18:18;;;;;;;6.90;4.60;;;12.50;99.90;;;;;;4974384;28;20074;-90
2023/09/04 03:20:44;;;;;;;8.40;4.97;;;12.50;99.90;;;;;;4988929;28;20034;-90
2023/09/04 03:23:09;;;;;;;8.07;4.93;;;12.50;99.90;;;;;;4973193;28;20501;-92
2023/09/04 03:25:35;;;;;;;9.68;5.30;;;12.40;99.90;;;;;;4973300;28;20033;-90
2023/09/04 03:28:01;;;;;;;6.95;4.70;;;12.30;99.90;;;;;;4974386;28;20035;-89
2023/09/04 03:30:27;;;;;;;7.05;4.63;;;12.30;99.90;;;;;;4975608;28;20047;-89
2023/09/04 03:32:53;;;;;;;7.72;4.72;;;12.20;99.90;;;;;;4974937;28;20516;-90
2023/09/04 03:35:19;;;;;;;6.43;5.00;;;12.20;99.90;;;;;;4975917;28;20031;-92
2023/09/04 03:37:44;;;;;;;6.72;5.10;;;12.20;99.90;;;;;;4975548;28;20030;-91
2023/09/04 03:40:23;;;;;;;8.13;5.10;;;12.20;99.90;;;;;;4973831;28;20059;-89
2023/09/04 03:42:50;;;;;;;8.95;4.40;;;12.20;99.90;;;;;;4971730;28;20150;-91
2023/09/04 03:45:16;;;;;;;6.63;4.90;;;12.10;99.90;;;;;;4974752;28;20031;-89
2023/09/04 03:47:43;;;;;;;7.68;5.07;;;12.20;99.90;;;;;;4973912;28;20041;-90
2023/09/04 03:50:11;;;;;;;7.07;4.72;;;12.10;99.90;;;;;;4973750;28;20129;-89
2023/09/04 03:52:38;;;;;;;8.70;5.00;;;12.10;99.90;;;;;;4973386;28;20105;-90
2023/09/04 03:55:04;;;;;;;8.43;4.85;;;12.10;99.90;;;;;;4973330;28;20038;-91
2023/09/04 03:57:30;;;;;;;6.97;4.70;;;12.00;99.90;;;;;;4974358;28;20015;-89
2023/09/04 03:59:56;;;;;;;7.68;5.20;;;12.00;99.90;;;;;;4976579;28;20219;-90
2023/09/04 04:02:22;;;;;;;8.68;5.15;;;11.90;99.90;;;;;;4973189;28;20273;-89
2023/09/04 04:04:51;;;;;;;6.60;4.63;;;11.90;99.90;;;;;;4973231;28;20022;-90
2023/09/04 04:07:17;;;;;;;7.45;5.20;;;11.80;99.90;;;;;;4973011;28;20030;-90
2023/09/04 04:09:44;;;;;;;7.28;4.70;;;11.80;99.90;;;;;;4972501;28;20081;-91
2023/09/04 04:12:10;;;;;;;8.07;4.95;;;11.80;99.90;;;;;;4988735;28;20621;-90
2023/09/04 04:14:36;;;;;;;7.63;5.45;;;11.80;99.90;;;;;;4972995;28;20027;-90
2023/09/04 04:17:02;;;;;;;7.72;4.95;;;11.80;99.90;;;;;;4972917;28;20038;-90
2023/09/04 04:19:28;;;;;;;6.93;4.78;;;11.80;99.90;;;;;;4972593;28;20015;-90
2023/09/04 04:21:53;;;;;;;7.53;5.50;;;11.70;99.90;;;;;;4972838;28;20025;-90
2023/09/04 04:24:20;;;;;;;8.38;4.60;;;11.70;99.90;;;;;;4972491;28;20050;-89
2023/09/04 04:26:46;;;;;;;6.30;5.05;;;11.70;99.90;;;;;;4972595;28;20031;-89
2023/09/04 04:29:11;;;;;;;6.53;5.10;;;11.70;99.90;;;;;;4972636;28;20033;-90
2023/09/04 04:31:38;;;;;;;7.93;5.63;;;11.60;99.90;;;;;;4972510;28;20117;-90
2023/09/04 04:34:03;;;;;;;7.90;5.65;;;11.50;99.90;;;;;;4976224;28;20516;-90
2023/09/04 04:36:30;;;;;;;6.47;5.28;;;11.50;99.90;;;;;;4976365;28;20058;-89
2023/09/04 04:38:56;;;;;;;7.95;5.47;;;11.50;99.90;;;;;;4977404;28;20106;-90
2023/09/04 04:41:21;;;;;;;14.93;5.97;;;11.50;99.90;;;;;;4975971;28;20133;-90
2023/09/04 04:43:47;;;;;;;9.50;6.38;;;11.40;99.90;;;;;;4976365;28;20025;-89
2023/09/04 04:46:15;;;;;;;8.38;5.95;;;11.40;99.90;;;;;;4992487;28;20478;-90
2023/09/04 04:48:41;;;;;;;8.70;6.15;;;11.40;99.90;;;;;;4978076;28;20034;-90
2023/09/04 04:51:07;;;;;;;8.68;6.30;;;11.40;99.90;;;;;;4979199;28;20054;-90
2023/09/04 04:53:34;;;;;;;8.00;5.68;;;11.40;99.90;;;;;;4976948;28;20113;-90
2023/09/04 04:56:00;;;;;;;7.13;4.78;;;11.40;99.90;;;;;;4976037;28;20110;-89
2023/09/04 04:58:26;;;;;;;7.50;4.65;;;11.40;99.90;;;;;;4975879;28;20109;-90
2023/09/04 05:00:51;;;;;;;6.05;4.85;;;11.40;99.90;;;;;;4976385;28;20039;-90
2023/09/04 05:03:17;;;;;;;5.88;4.53;;;11.40;99.90;;;;;;4977244;28;20026;-91
2023/09/04 05:05:46;;;;;;;6.40;5.22;;;11.50;99.90;;;;;;4976242;28;20030;-90
2023/09/04 05:08:12;;;;;;;6.80;4.78;;;11.50;99.90;;;;;;4976685;28;20053;-90
2023/09/04 05:10:37;;;;;;;6.70;4.85;;;11.50;99.90;;;;;;4975554;28;20170;-90
2023/09/04 05:13:03;;;;;;;7.03;5.25;;;11.60;99.90;;;;;;4975288;28;20098;-90
2023/09/04 05:15:29;;;;;;;8.80;5.25;;;11.60;99.90;;;;;;4975848;28;20026;-90
2023/09/04 05:17:54;;;;;;;6.75;4.68;;;11.50;99.90;;;;;;4975536;28;20483;-90
2023/09/04 05:20:21;;;;;;;6.90;5.05;;;11.50;99.90;;;;;;4975574;28;20047;-90
2023/09/04 05:22:46;;;;;;;10.77;5.55;;;11.40;99.90;;;;;;4975124;28;20034;-90
2023/09/04 05:25:12;;;;;;;7.88;5.50;;;11.30;99.90;;;;;;4975163;28;20027;-90
2023/09/04 05:27:38;;;;;;;8.63;5.85;;;11.20;99.90;;;;;;4975376;28;20037;-91
2023/09/04 05:30:04;;;;;;;7.72;5.65;;;11.20;99.90;;;;;;4974987;28;20045;-90
2023/09/04 05:32:30;;;;;;;12.18;5.38;;;11.20;99.90;;;;;;4974835;28;20043;-90
2023/09/04 05:34:56;;;;;;;7.57;5.35;;;11.10;99.90;;;;;;4975850;28;20091;-90
2023/09/04 05:37:22;;;;;;;7.25;5.28;;;11.10;99.90;;;;;;4975209;28;20035;-90
2023/09/04 05:39:48;;;;;;;8.70;5.15;;;11.10;99.90;;;;;;4975278;28;20545;-90
2023/09/04 05:42:14;;;;;;;5.90;4.35;;;11.10;99.90;;;;;;4975196;28;20030;-90
2023/09/04 05:44:40;;;;;;;10.10;5.03;;;11.10;99.90;;;;;;4975167;28;20027;-91
2023/09/04 05:47:06;;;;;;;6.72;5.15;;;11.10;99.90;;;;;;4976273;28;20027;-90
2023/09/04 05:49:32;;;;;;;9.35;4.90;;;11.10;99.90;;;;;;4975044;28;20031;-90
2023/09/04 05:51:58;;;;;;;7.85;6.03;;;11.10;99.90;;;;;;4974802;28;20026;-90
2023/09/04 05:54:24;;;;;;;7.97;5.35;;;11.10;99.90;;;;;;4975146;28;20027;-91
2023/09/04 05:56:49;;;;;;;6.43;4.85;;;11.10;99.90;;;;;;4974900;28;20516;-90
2023/09/04 05:59:17;;;;;;;7.40;5.10;;;11.20;99.90;;;;;;4974767;28;20031;-90
2023/09/04 06:01:42;;;;;;;6.47;4.78;;;11.20;99.90;;;;;;4974848;28;20030;-89
2023/09/04 06:04:08;;;;;;;8.02;4.65;;;11.20;99.90;;;;;;4974833;28;20102;-89
2023/09/04 06:06:38;;;;;;;8.27;5.30;;;11.20;99.90;;;;;;4974567;28;20015;-91
2023/09/04 06:09:06;;;;;;;6.00;4.68;;;11.20;99.90;;;;;;4975211;28;20065;-90
2023/09/04 06:11:31;;;;;;;8.35;5.15;;;11.20;99.90;;;;;;4974714;28;20081;-91
2023/09/04 06:13:57;;;;;;;5.55;4.47;;;11.20;99.90;;;;;;4974617;28;20030;-90
2023/09/04 06:16:23;;;;;;;8.77;4.68;;;11.20;99.90;;;;;;4974249;28;20053;-91
2023/09/04 06:18:48;;;;;;;7.15;5.05;;;11.20;99.90;;;;;;4974533;28;20179;-89
2023/09/04 06:21:14;;;;;;;10.20;5.07;;;11.20;99.90;;;;;;4974685;28;20034;-90
2023/09/04 06:23:40;;;;;;;7.68;5.25;;;11.20;99.90;;;;;;4974567;28;20496;-90
2023/09/04 06:26:05;;;;;;;9.38;4.82;;;11.20;99.90;;;;;;4975500;28;20054;-90
2023/09/04 06:28:31;;;;;;;7.95;5.05;;;11.20;99.90;;;;;;4980065;28;20517;-89
2023/09/04 06:30:57;;;;;;;9.18;4.75;;;11.20;99.90;;;;;;4976023;28;20502;-89
2023/09/04 06:33:25;;;;;;;7.78;5.75;;;11.20;99.90;;;;;;4978038;28;20078;-89
2023/09/04 06:35:51;;;;;;;8.70;5.20;;;11.20;99.90;;;;;;4993831;28;20023;-89
2023/09/04 06:38:16;;;;;;;10.00;5.90;;;11.20;99.90;;;;;;4980174;28;20030;-89
2023/09/04 06:40:42;;;;;;;7.88;5.78;;;11.20;99.90;;;;;;4977685;28;20498;-88
2023/09/04 06:43:09;;;;;;;11.90;6.65;;;11.20;99.90;;;;;;4975071;28;20031;-89
2023/09/04 06:45:37;;;;;;;9.75;5.32;;;11.20;99.90;;;;;;4976291;28;20049;-89
2023/09/04 06:48:06;;;;;;;8.63;4.97;;;11.30;99.90;;;;;;4975639;28;20139;-89
2023/09/04 06:50:32;;;;;;;9.65;6.10;;;11.30;99.90;;;;;;4974664;28;20050;-90
2023/09/04 06:52:57;;;;;;;9.40;5.90;;;11.30;99.90;;;;;;4991171;28;20026;-91
2023/09/04 06:55:24;;;;;;;7.28;5.40;;;11.30;99.90;;;;;;4975287;28;20051;-90
2023/09/04 06:57:50;;;;;;;9.48;5.80;;;11.40;99.90;;;;;;4975304;28;20023;-90
2023/09/04 07:00:16;;;;;;;8.90;5.20;;;11.40;99.90;;;;;;4974484;28;20591;-90
2023/09/04 07:02:42;;;;;;;7.93;5.68;;;11.50;99.90;;;;;;4976010;28;20054;-89
2023/09/04 07:05:08;;;;;;;6.35;5.43;;;11.50;99.90;;;;;;4973710;28;20034;-89
2023/09/04 07:07:37;;;;;;;7.97;5.90;;;11.60;99.90;;;;;;4974306;28;20030;-89
2023/09/04 07:10:06;;;;;;;11.10;5.70;;;11.60;99.90;;;;;;4979220;28;20069;-89
2023/09/04 07:12:35;;;;;;;8.53;5.27;;;11.60;99.90;;;;;;4973138;28;20019;-89
2023/09/04 07:15:01;;;;;;;8.07;5.75;;;11.70;99.90;;;;;;4973618;28;20027;-91
2023/09/04 07:17:27;;;;;;;9.30;5.95;;;11.80;99.90;;;;;;4973745;28;20114;-89
2023/09/04 07:19:52;;;;;;;7.82;5.50;;;11.80;99.90;;;;;;4974252;28;20062;-89
2023/09/04 07:22:18;;;;;;;7.85;5.38;;;11.90;99.90;;;;;;4976936;28;20023;-90
2023/09/04 07:24:44;;;;;;;9.85;5.90;;;12.00;99.90;;;;;;5002174;28;20027;-90
2023/09/04 07:27:10;;;;;;;8.88;5.78;;;12.10;99.90;;;;;;4975274;28;20023;-88
2023/09/04 07:29:36;;;;;;;10.88;6.40;;;12.20;99.90;;;;;;4973044;28;20106;-90
2023/09/04 07:32:02;;;;;;;7.13;5.25;;;12.30;99.90;;;;;;4975613;28;20039;-89
2023/09/04 07:34:28;;;;;;;10.60;4.65;;;12.30;99.90;;;;;;4990414;28;20392;-89
2023/09/04 07:36:54;;;;;;;9.13;5.57;;;12.40;99.90;;;;;;4981977;28;20014;-89
2023/09/04 07:39:20;;;;;;;7.13;5.28;;;12.50;99.90;;;;;;4973095;28;20046;-90
2023/09/04 07:41:45;;;;;;;9.13;6.10;;;12.60;99.90;;;;;;4980516;28;20588;-89
2023/09/04 07:44:11;;;;;;;8.88;5.80;;;12.70;99.90;;;;;;4972491;28;20019;-89
2023/09/04 07:46:37;;;;;;;8.23;6.72;;;12.80;99.90;;;;;;4971978;28;20026;-89
2023/09/04 07:49:03;;;;;;;9.32;4.63;;;12.90;99.90;;;;;;4972745;28;20573;-89
2023/09/04 07:51:28;;;;;;;6.00;4.65;;;13.00;99.90;;;;;;4973128;28;20042;-88
2023/09/04 07:53:54;;;;;;;10.43;7.15;;;13.10;99.90;;;;;;4970819;28;20111;-91
2023/09/04 07:56:21;;;;;;;9.00;6.05;;;13.30;99.90;;;;;;4975483;28;20022;-89
2023/09/04 07:58:46;;;;;;;6.25;3.47;;;13.40;99.90;;;;;;4974342;28;20231;-91
2023/09/04 08:01:14;;;;;;;4.78;3.15;;;13.40;99.90;;;;;;4976293;28;20022;-93
2023/09/04 08:03:43;;;;;;;4.03;3.40;;;13.60;99.90;;;;;;4976662;28;20042;-92
2023/09/04 08:06:09;;;;;;;5.40;3.70;;;13.80;99.90;;;;;;4975606;28;20034;-91
2023/09/04 08:08:35;;;;;;;7.57;5.05;;;13.90;99.90;;;;;;4977413;28;20030;-89
2023/09/04 08:11:01;;;;;;;6.10;4.30;;;14.10;99.90;;;;;;4978335;28;20031;-90
2023/09/04 08:13:26;;;;;;;8.02;5.32;;;14.20;99.90;;;;;;4977177;28;20031;-90
2023/09/04 08:15:52;;;;;;;5.47;3.67;;;14.30;99.90;;;;;;4976358;28;20042;-91
2023/09/04 08:18:18;;;;;;;6.10;5.03;;;14.50;99.90;;;;;;4975993;28;20042;-92
2023/09/04 08:20:44;;;;;;;6.35;3.92;;;14.60;99.90;;;;;;4977048;28;20031;-91
2023/09/04 08:23:09;;;;;;;5.68;4.22;;;14.70;99.90;;;;;;4975889;28;20152;-92
2023/09/04 08:25:36;;;;;;;6.93;4.00;;;14.90;99.90;;;;;;4975924;28;20027;-90
2023/09/04 08:28:03;;;;;;;11.65;4.95;;;15.00;99.90;;;;;;4976294;28;20073;-91
2023/09/04 08:30:29;;;;;;;6.32;4.20;;;15.10;99.90;;;;;;4976163;28;20031;-90
2023/09/04 08:32:55;;;;;;;6.85;4.90;;;15.30;99.90;;;;;;4975326;28;20058;-91
2023/09/04 08:35:21;;;;;;;7.57;5.32;;;15.40;99.90;;;;;;4975418;28;20034;-89
2023/09/04 08:37:47;;;;;;;11.10;7.05;;;15.50;99.90;;;;;;4973539;28;20038;-92
2023/09/04 08:40:13;;;;;;;9.82;5.90;;;15.70;99.90;;;;;;4975424;28;20571;-92
2023/09/04 08:42:40;;;;;;;7.25;5.38;;;15.80;99.90;;;;;;4978409;28;20027;-93
2023/09/04 08:45:07;;;;;;;12.00;6.13;;;15.90;99.90;;;;;;4973779;28;20034;-91
2023/09/04 08:47:38;;;;;;;7.57;5.65;;;16.10;99.90;;;;;;4981776;28;20023;-91
2023/09/04 08:50:04;;;;;;;8.75;5.55;;;16.20;99.90;;;;;;4985620;28;20070;-91
2023/09/04 08:52:30;;;;;;;6.15;4.82;;;16.40;99.90;;;;;;4986754;28;20485;-90
2023/09/04 08:54:56;;;;;;;7.00;4.65;;;16.60;99.90;;;;;;4985554;28;20037;-89
2023/09/04 08:57:23;;;;;;;7.72;5.40;;;16.70;99.90;;;;;;4983033;28;20026;-90
2023/09/04 08:59:49;;;;;;;9.85;5.55;;;16.90;99.90;;;;;;4983862;28;20023;-91
2023/09/04 09:02:16;;;;;;;10.98;6.63;;;17.10;99.90;;;;;;4986807;28;20031;-90
2023/09/04 09:04:42;;;;;;;7.93;5.97;;;17.20;99.90;;;;;;4984395;28;20053;-91
2023/09/04 09:07:10;;;;;;;8.77;5.68;;;17.40;99.90;;;;;;4985416;28;20031;-91
2023/09/04 09:09:38;;;;;;;8.63;5.93;;;17.60;99.90;;;;;;4985953;28;20039;-92
2023/09/04 09:12:05;;;;;;;10.73;6.57;;;17.80;99.90;;;;;;4980258;28;20067;-90
2023/09/04 09:14:32;;;;;;;10.35;5.78;;;17.90;99.90;;;;;;4981363;28;20101;-91
2023/09/04 09:17:06;;;;;;;10.18;6.20;;;18.20;99.90;;;;;;4980916;28;20015;-91
2023/09/04 09:19:33;;;;;;;9.10;6.13;;;18.40;99.90;;;;;;4975580;28;20023;-90
2023/09/04 09:22:19;;;;;;;6.85;4.72;;;18.60;99.90;;;;;;4983623;28;20030;-93
2023/09/04 09:25:01;;;;;;;8.30;6.20;;;18.90;99.90;;;;;;4985881;28;20059;-91
2023/09/04 09:27:32;;;;;;;9.85;6.13;;;19.20;99.90;;;;;;4979385;28;20031;-92
2023/09/04 09:30:01;;;;;;;9.48;5.38;;;19.40;99.90;;;;;;4985381;28;20035;-92
2023/09/04 09:32:30;;;;;;;14.80;6.85;;;19.70;99.90;;;;;;4981153;28;20044;-90
2023/09/04 09:34:57;;;;;;;11.02;6.35;;;19.90;99.90;;;;;;4987489;28;20027;-91
2023/09/04 09:37:25;;;;;;;9.63;6.22;;;20.20;99.90;;;;;;4988648;28;20584;-91
2023/09/04 09:39:51;;;;;;;9.13;6.40;;;20.40;99.90;;;;;;4981877;28;20053;-90
2023/09/04 09:42:20;;;;;;;17.48;7.97;;;20.80;99.90;;;;;;4988579;28;20035;-91
2023/09/04 09:44:46;;;;;;;14.60;8.18;;;21.00;99.90;;;;;;4990253;28;20058;-91
2023/09/04 09:47:13;;;;;;;14.25;7.82;;;21.30;99.90;;;;;;4984237;28;20169;-90
2023/09/04 09:49:40;;;;;;;18.17;11.13;;;21.60;99.90;;;;;;4973519;28;20046;-91
2023/09/04 09:52:15;;;;;;;18.83;11.00;;;21.90;99.90;;;;;;4980825;28;20038;-92
2023/09/04 09:54:41;;;;;;;18.65;11.32;;;22.10;99.90;;;;;;5001678;28;20023;-92
2023/09/04 09:57:12;;;;;;;21.15;11.63;;;22.40;99.90;;;;;;4982117;28;20053;-91
2023/09/04 09:59:46;;;;;;;20.15;11.85;;;22.60;99.90;;;;;;4976155;28;20491;-92
2023/09/04 10:02:32;;;;;;;21.67;9.88;;;22.90;99.90;;;;;;4980823;28;20040;-92
2023/09/04 10:04:58;;;;;;;16.10;10.10;;;23.10;99.90;;;;;;4989749;28;20022;-91
2023/09/04 10:07:30;;;;;;;19.20;9.32;;;23.30;99.90;;;;;;4974014;28;20026;-90
2023/09/04 10:10:03;;;;;;;17.05;9.40;;;23.50;99.90;;;;;;4973045;28;20035;-92
2023/09/04 10:12:34;;;;;;;13.60;9.00;;;23.70;99.90;;;;;;4972271;28;20478;-93
2023/09/04 10:15:01;;;;;;;15.73;8.68;;;23.90;99.90;;;;;;4973691;28;20509;-92
2023/09/04 10:18:09;;;;;;;14.32;9.20;;;24.00;99.90;;;;;;4973961;28;20054;-91
2023/09/04 10:20:36;;;;;;;14.63;9.38;;;24.10;99.90;;;;;;4934085;29;20503;-94
2023/09/04 10:23:08;;;;;;;15.63;8.98;;;24.30;99.90;;;;;;4933724;29;20495;-93
2023/09/04 10:25:56;;;;;;;21.67;9.52;;;24.50;99.90;;;;;;4932076;29;20076;-91
2023/09/04 10:28:31;;;;;;;18.52;9.43;;;24.60;99.90;;;;;;4926219;29;20637;-92
2023/09/04 10:30:59;;;;;;;14.68;9.48;;;24.80;99.40;;;;;;4917057;29;20055;-91
2023/09/04 10:33:25;;;;;;;18.77;9.48;;;24.90;98.60;;;;;;4931471;29;20146;-92
2023/09/04 10:35:54;;;;;;;14.57;8.68;;;25.10;97.80;;;;;;4915211;29;20028;-93
2023/09/04 10:38:20;;;;;;;14.55;9.10;;;25.20;97.30;;;;;;4933444;29;20036;-91
2023/09/04 10:40:47;;;;;;;13.73;7.25;;;25.40;96.60;;;;;;4934104;29;20026;-92
2023/09/04 10:43:13;;;;;;;11.98;7.68;;;25.50;95.80;;;;;;4934228;29;20043;-90
2023/09/04 10:45:38;;;;;;;9.75;6.97;;;25.70;95.20;;;;;;4934599;29;20055;-91
2023/09/04 10:48:05;;;;;;;11.07;6.13;;;25.90;94.30;;;;;;4933892;29;20114;-91
2023/09/04 10:50:30;;;;;;;11.38;6.88;;;25.90;93.60;;;;;;4918504;29;20044;-88
2023/09/04 10:53:00;;;;;;;7.82;5.82;;;26.10;93.10;;;;;;4918728;29;20134;-90
2023/09/04 10:55:27;;;;;;;8.23;6.07;;;26.20;92.20;;;;;;4900424;29;20028;-90
2023/09/04 10:58:02;;;;;;;6.93;5.35;;;26.30;91.50;;;;;;4966793;28;20035;-90
2023/09/04 11:00:29;;;;;;;8.35;5.20;;;26.30;89.60;;;;;;4973622;28;20030;-90
2023/09/04 11:02:56;;;;;;;8.38;5.10;;;26.20;88.20;;;;;;4974204;28;20127;-90
2023/09/04 11:05:23;;;;;;;11.75;5.60;;;26.30;87.80;;;;;;4973909;28;20026;-90
2023/09/04 11:07:48;;;;;;;6.35;4.53;;;26.50;87.20;;;;;;4974685;28;20023;-90
2023/09/04 11:10:14;;;;;;;7.15;4.38;;;26.60;85.10;;;;;;4976482;28;20509;-90
2023/09/04 11:12:42;;;;;;;8.48;4.53;;;26.60;84.50;;;;;;4980600;28;20019;-91
2023/09/04 11:15:12;;;;;;;7.50;4.47;;;26.80;83.50;;;;;;4974107;28;20069;-90
2023/09/04 11:17:40;;;;;;;6.30;3.83;;;26.90;83.20;;;;;;4973662;28;20019;-91
2023/09/04 11:20:06;;;;;;;6.32;4.82;;;27.10;82.80;;;;;;4973601;28;20035;-91
2023/09/04 11:22:34;;;;;;;5.45;3.88;;;27.40;81.70;;;;;;4973048;28;20030;-91
2023/09/04 11:24:59;;;;;;;6.57;3.80;;;27.50;80.00;;;;;;4975664;28;20069;-90
2023/09/04 11:27:27;;;;;;;5.57;3.65;;;27.70;79.00;;;;;;4977342;28;20065;-91
2023/09/04 11:29:53;;;;;;;4.85;3.22;;;27.90;78.00;;;;;;4975840;28;20035;-90
2023/09/04 11:32:19;;;;;;;5.65;3.83;;;28.10;76.90;;;;;;4975313;28;20109;-90
2023/09/04 11:34:47;;;;;;;5.38;3.83;;;28.20;75.20;;;;;;4972910;28;20030;-89
2023/09/04 11:37:13;;;;;;;5.28;3.92;;;28.20;74.90;;;;;;4967437;28;20039;-89
2023/09/04 11:39:56;;;;;;;5.57;3.85;;;28.30;74.70;;;;;;4972274;28;20045;-90
2023/09/04 11:42:23;;;;;;;5.68;3.78;;;28.40;73.90;;;;;;4978554;28;20027;-90
2023/09/04 11:44:49;;;;;;;7.70;4.50;;;28.50;73.70;;;;;;4979262;28;20035;-91
2023/09/04 11:47:18;;;;;;;9.02;4.80;;;28.60;73.00;;;;;;4979071;28;20141;-90
2023/09/04 11:49:47;;;;;;;5.03;3.65;;;28.80;72.60;;;;;;4979380;28;20567;-91
2023/09/04 11:52:14;;;;;;;9.52;4.45;;;28.80;72.20;;;;;;4979365;28;20082;-91
2023/09/04 11:54:41;;;;;;;5.25;3.90;;;28.90;71.30;;;;;;4978749;28;20084;-91
2023/09/04 11:57:07;;;;;;;6.97;3.72;;;29.00;71.20;;;;;;4978876;28;20023;-90
2023/09/04 11:59:39;;;;;;;4.75;3.28;;;29.10;71.00;;;;;;4979269;28;20034;-88
2023/09/04 12:02:07;;;;;;;5.60;4.00;;;29.30;70.80;;;;;;4978973;28;20034;-88
2023/09/04 12:04:34;;;;;;;4.15;3.00;;;29.50;70.00;;;;;;4979060;28;20061;-88
2023/09/04 12:07:05;;;;;;;7.55;3.30;;;29.70;70.00;;;;;;4978488;28;20086;-91
2023/09/04 12:09:36;;;;;;;4.45;3.00;;;29.80;69.60;;;;;;4978497;28;20039;-90
2023/09/04 12:12:02;;;;;;;4.05;3.30;;;30.00;69.10;;;;;;4979352;28;20386;-89
2023/09/04 12:14:28;;;;;;;4.22;3.05;;;30.20;68.50;;;;;;4965736;28;20039;-91
2023/09/04 12:16:54;;;;;;;3.92;3.10;;;30.40;67.60;;;;;;4974128;28;20026;-90
2023/09/04 12:19:24;;;;;;;5.35;3.50;;;30.60;67.00;;;;;;4979165;28;20039;-90
2023/09/04 12:21:50;;;;;;;5.00;3.95;;;30.70;66.40;;;;;;4979805;28;20026;-90
2023/09/04 12:24:17;;;;;;;5.53;3.70;;;30.70;66.10;;;;;;4980590;28;20093;-91
2023/09/04 12:26:43;;;;;;;5.22;3.60;;;30.50;65.70;;;;;;4978859;28;20014;-89
2023/09/04 12:29:12;;;;;;;3.65;3.22;;;30.50;65.70;;;;;;4978404;28;20038;-91
2023/09/04 12:31:38;;;;;;;5.22;3.25;;;30.50;65.90;;;;;;4979571;28;20027;-90
2023/09/04 12:34:04;;;;;;;4.13;3.30;;;30.60;65.80;;;;;;4978111;28;20034;-91
2023/09/04 12:36:34;;;;;;;5.78;3.53;;;30.80;65.80;;;;;;4979371;28;20049;-91
2023/09/04 12:39:00;;;;;;;4.70;3.42;;;30.90;65.50;;;;;;4978871;28;20027;-90
2023/09/04 12:41:29;;;;;;;5.72;3.10;;;30.90;65.10;;;;;;4978642;28;20033;-91
2023/09/04 12:43:54;;;;;;;5.63;3.35;;;31.10;65.00;;;;;;4978925;28;20023;-90
2023/09/04 12:46:20;;;;;;;4.57;2.95;;;31.20;64.50;;;;;;4980212;28;20593;-90